sensor_id;sensor_type;location;lat;lon;timestamp;P1;durP1;ratioP1;P2;durP2;ratioP2
6023;SDS011;3040;42.654;23.296;2023-06-14T00:02:16;6.87;;;6.43;;
6023;SDS011;3040;42.654;23.296;2023-06-14T00:04:42;6.90;;;6.40;;
6023;SDS011;3040;42.654;23.296;2023-06-14T00:07:10;6.23;;;5.83;;
6023;SDS011;3040;42.654;23.296;2023-06-14T00:09:40;7.33;;;7.03;;
6023;SDS011;3040;42.654;23.296;2023-06-14T00:12:07;8.17;;;7.30;;
6023;SDS011;3040;42.654;23.296;2023-06-14T00:14:34;7.00;;;6.60;;
6023;SDS011;3040;42.654;23.296;2023-06-14T00:17:01;7.57;;;7.03;;
6023;SDS011;3040;42.654;23.296;2023-06-14T00:19:28;8.07;;;7.57;;
6023;SDS011;3040;42.654;23.296;2023-06-14T00:21:57;8.10;;;7.70;;
6023;SDS011;3040;42.654;23.296;2023-06-14T00:24:24;8.40;;;7.67;;
6023;SDS011;3040;42.654;23.296;2023-06-14T00:26:52;7.23;;;6.83;;
6023;SDS011;3040;42.654;23.296;2023-06-14T00:29:20;8.00;;;7.60;;
6023;SDS011;3040;42.654;23.296;2023-06-14T00:31:47;6.93;;;6.40;;
6023;SDS011;3040;42.654;23.296;2023-06-14T00:34:14;8.03;;;7.30;;
6023;SDS011;3040;42.654;23.296;2023-06-14T00:36:40;7.27;;;6.97;;
6023;SDS011;3040;42.654;23.296;2023-06-14T00:39:07;6.60;;;6.40;;
6023;SDS011;3040;42.654;23.296;2023-06-14T00:41:34;7.63;;;7.13;;
6023;SDS011;3040;42.654;23.296;2023-06-14T00:44:03;6.77;;;6.37;;
6023;SDS011;3040;42.654;23.296;2023-06-14T00:46:30;6.33;;;5.97;;
6023;SDS011;3040;42.654;23.296;2023-06-14T00:48:57;6.40;;;6.00;;
6023;SDS011;3040;42.654;23.296;2023-06-14T00:51:26;5.77;;;5.57;;
6023;SDS011;3040;42.654;23.296;2023-06-14T00:53:53;6.60;;;6.20;;
6023;SDS011;3040;42.654;23.296;2023-06-14T00:56:20;6.00;;;5.80;;
6023;SDS011;3040;42.654;23.296;2023-06-14T00:58:48;5.73;;;5.53;;
6023;SDS011;3040;42.654;23.296;2023-06-14T01:01:17;5.93;;;5.43;;
6023;SDS011;3040;42.654;23.296;2023-06-14T01:03:44;6.17;;;5.87;;
6023;SDS011;3040;42.654;23.296;2023-06-14T01:06:14;5.60;;;5.40;;
6023;SDS011;3040;42.654;23.296;2023-06-14T01:08:55;5.90;;;5.60;;
6023;SDS011;3040;42.654;23.296;2023-06-14T01:11:28;5.97;;;5.70;;
6023;SDS011;3040;42.654;23.296;2023-06-14T01:14:01;6.63;;;6.13;;
6023;SDS011;3040;42.654;23.296;2023-06-14T01:16:31;6.57;;;6.17;;
6023;SDS011;3040;42.654;23.296;2023-06-14T01:19:01;7.47;;;6.03;;
6023;SDS011;3040;42.654;23.296;2023-06-14T01:21:28;6.43;;;6.03;;
6023;SDS011;3040;42.654;23.296;2023-06-14T01:23:56;6.83;;;6.17;;
6023;SDS011;3040;42.654;23.296;2023-06-14T01:26:23;6.80;;;6.20;;
6023;SDS011;3040;42.654;23.296;2023-06-14T01:28:51;6.13;;;5.50;;
6023;SDS011;3040;42.654;23.296;2023-06-14T01:31:21;6.73;;;6.20;;
6023;SDS011;3040;42.654;23.296;2023-06-14T01:33:49;5.57;;;5.27;;
6023;SDS011;3040;42.654;23.296;2023-06-14T01:36:17;5.50;;;5.13;;
6023;SDS011;3040;42.654;23.296;2023-06-14T01:38:45;5.47;;;5.27;;
6023;SDS011;3040;42.654;23.296;2023-06-14T01:41:14;5.87;;;5.57;;
6023;SDS011;3040;42.654;23.296;2023-06-14T01:43:42;5.00;;;4.80;;
6023;SDS011;3040;42.654;23.296;2023-06-14T01:46:09;4.87;;;4.67;;
6023;SDS011;3040;42.654;23.296;2023-06-14T01:48:37;5.40;;;5.10;;
6023;SDS011;3040;42.654;23.296;2023-06-14T01:51:04;5.00;;;4.80;;
6023;SDS011;3040;42.654;23.296;2023-06-14T01:53:30;5.93;;;5.37;;
6023;SDS011;3040;42.654;23.296;2023-06-14T01:55:57;5.23;;;4.77;;
6023;SDS011;3040;42.654;23.296;2023-06-14T01:58:25;5.33;;;4.93;;
6023;SDS011;3040;42.654;23.296;2023-06-14T02:00:52;6.10;;;5.80;;
6023;SDS011;3040;42.654;23.296;2023-06-14T02:03:20;5.07;;;4.77;;
6023;SDS011;3040;42.654;23.296;2023-06-14T02:05:48;5.70;;;5.33;;
6023;SDS011;3040;42.654;23.296;2023-06-14T02:08:15;6.47;;;6.07;;
6023;SDS011;3040;42.654;23.296;2023-06-14T02:10:41;5.43;;;4.93;;
6023;SDS011;3040;42.654;23.296;2023-06-14T02:13:08;5.67;;;5.37;;
6023;SDS011;3040;42.654;23.296;2023-06-14T02:15:36;7.53;;;5.53;;
6023;SDS011;3040;42.654;23.296;2023-06-14T02:18:03;6.50;;;5.10;;
6023;SDS011;3040;42.654;23.296;2023-06-14T02:20:30;6.67;;;6.03;;
6023;SDS011;3040;42.654;23.296;2023-06-14T02:22:57;5.80;;;5.30;;
6023;SDS011;3040;42.654;23.296;2023-06-14T02:25:24;5.00;;;4.80;;
6023;SDS011;3040;42.654;23.296;2023-06-14T02:27:53;5.07;;;4.87;;
6023;SDS011;3040;42.654;23.296;2023-06-14T02:30:20;5.33;;;5.13;;
6023;SDS011;3040;42.654;23.296;2023-06-14T02:32:48;5.73;;;5.33;;
6023;SDS011;3040;42.654;23.296;2023-06-14T02:35:16;4.63;;;4.33;;
6023;SDS011;3040;42.654;23.296;2023-06-14T02:37:43;5.17;;;4.87;;
6023;SDS011;3040;42.654;23.296;2023-06-14T02:40:10;4.67;;;4.47;;
6023;SDS011;3040;42.654;23.296;2023-06-14T02:42:37;5.23;;;4.53;;
6023;SDS011;3040;42.654;23.296;2023-06-14T02:45:04;5.37;;;5.17;;
6023;SDS011;3040;42.654;23.296;2023-06-14T02:47:32;4.73;;;4.53;;
6023;SDS011;3040;42.654;23.296;2023-06-14T02:50:00;6.30;;;5.77;;
6023;SDS011;3040;42.654;23.296;2023-06-14T02:52:27;4.90;;;4.70;;
6023;SDS011;3040;42.654;23.296;2023-06-14T02:54:54;5.10;;;4.83;;
6023;SDS011;3040;42.654;23.296;2023-06-14T02:57:21;5.37;;;5.17;;
6023;SDS011;3040;42.654;23.296;2023-06-14T02:59:48;5.30;;;5.10;;
6023;SDS011;3040;42.654;23.296;2023-06-14T03:02:15;5.00;;;4.80;;
6023;SDS011;3040;42.654;23.296;2023-06-14T03:04:42;5.10;;;4.87;;
6023;SDS011;3040;42.654;23.296;2023-06-14T03:07:11;5.30;;;4.90;;
6023;SDS011;3040;42.654;23.296;2023-06-14T03:09:38;13.60;;;5.30;;
6023;SDS011;3040;42.654;23.296;2023-06-14T03:12:06;4.90;;;4.60;;
6023;SDS011;3040;42.654;23.296;2023-06-14T03:14:34;11.83;;;5.30;;
6023;SDS011;3040;42.654;23.296;2023-06-14T03:17:01;4.90;;;4.57;;
6023;SDS011;3040;42.654;23.296;2023-06-14T03:19:29;8.73;;;4.73;;
6023;SDS011;3040;42.654;23.296;2023-06-14T03:21:56;4.83;;;4.40;;
6023;SDS011;3040;42.654;23.296;2023-06-14T03:24:24;5.93;;;5.57;;
6023;SDS011;3040;42.654;23.296;2023-06-14T03:26:52;5.90;;;5.47;;
6023;SDS011;3040;42.654;23.296;2023-06-14T03:29:19;5.90;;;5.50;;
6023;SDS011;3040;42.654;23.296;2023-06-14T03:31:56;5.10;;;4.90;;
6023;SDS011;3040;42.654;23.296;2023-06-14T03:34:24;5.50;;;5.13;;
6023;SDS011;3040;42.654;23.296;2023-06-14T03:36:50;5.50;;;5.30;;
6023;SDS011;3040;42.654;23.296;2023-06-14T03:39:18;4.97;;;4.77;;
6023;SDS011;3040;42.654;23.296;2023-06-14T03:41:46;4.50;;;4.40;;
6023;SDS011;3040;42.654;23.296;2023-06-14T03:44:14;5.60;;;5.30;;
6023;SDS011;3040;42.654;23.296;2023-06-14T03:46:42;5.60;;;5.30;;
6023;SDS011;3040;42.654;23.296;2023-06-14T03:49:10;5.87;;;5.47;;
6023;SDS011;3040;42.654;23.296;2023-06-14T03:51:37;5.43;;;5.13;;
6023;SDS011;3040;42.654;23.296;2023-06-14T03:54:05;5.17;;;4.90;;
6023;SDS011;3040;42.654;23.296;2023-06-14T03:56:31;5.37;;;4.97;;
6023;SDS011;3040;42.654;23.296;2023-06-14T03:58:59;6.20;;;5.70;;
6023;SDS011;3040;42.654;23.296;2023-06-14T04:01:26;5.90;;;5.37;;
6023;SDS011;3040;42.654;23.296;2023-06-14T04:03:55;6.20;;;5.80;;
6023;SDS011;3040;42.654;23.296;2023-06-14T04:06:23;6.43;;;6.03;;
6023;SDS011;3040;42.654;23.296;2023-06-14T04:08:57;5.70;;;5.30;;
6023;SDS011;3040;42.654;23.296;2023-06-14T04:11:28;5.70;;;5.30;;
6023;SDS011;3040;42.654;23.296;2023-06-14T04:13:55;5.10;;;4.90;;
6023;SDS011;3040;42.654;23.296;2023-06-14T04:16:23;5.97;;;5.13;;
6023;SDS011;3040;42.654;23.296;2023-06-14T04:18:50;6.03;;;5.73;;
6023;SDS011;3040;42.654;23.296;2023-06-14T04:21:18;5.93;;;5.43;;
6023;SDS011;3040;42.654;23.296;2023-06-14T04:23:45;6.03;;;5.70;;
6023;SDS011;3040;42.654;23.296;2023-06-14T04:26:12;6.37;;;5.97;;
6023;SDS011;3040;42.654;23.296;2023-06-14T04:28:39;5.93;;;5.57;;
6023;SDS011;3040;42.654;23.296;2023-06-14T04:31:06;6.13;;;5.83;;
6023;SDS011;3040;42.654;23.296;2023-06-14T04:33:35;7.00;;;6.60;;
6023;SDS011;3040;42.654;23.296;2023-06-14T04:36:08;9.70;;;9.03;;
6023;SDS011;3040;42.654;23.296;2023-06-14T04:38:37;7.23;;;6.90;;
6023;SDS011;3040;42.654;23.296;2023-06-14T04:41:03;7.63;;;7.23;;
6023;SDS011;3040;42.654;23.296;2023-06-14T04:43:31;9.47;;;8.77;;
6023;SDS011;3040;42.654;23.296;2023-06-14T04:46:03;8.67;;;7.70;;
6023;SDS011;3040;42.654;23.296;2023-06-14T04:48:37;7.73;;;7.23;;
6023;SDS011;3040;42.654;23.296;2023-06-14T04:51:05;11.80;;;9.37;;
6023;SDS011;3040;42.654;23.296;2023-06-14T04:53:33;10.53;;;9.53;;
6023;SDS011;3040;42.654;23.296;2023-06-14T04:56:00;7.70;;;7.10;;
6023;SDS011;3040;42.654;23.296;2023-06-14T04:58:28;8.03;;;7.53;;
6023;SDS011;3040;42.654;23.296;2023-06-14T05:00:55;7.40;;;6.77;;
6023;SDS011;3040;42.654;23.296;2023-06-14T05:03:24;7.80;;;7.50;;
6023;SDS011;3040;42.654;23.296;2023-06-14T05:05:53;10.93;;;7.77;;
6023;SDS011;3040;42.654;23.296;2023-06-14T05:08:20;8.07;;;7.33;;
6023;SDS011;3040;42.654;23.296;2023-06-14T05:10:48;7.37;;;7.07;;
6023;SDS011;3040;42.654;23.296;2023-06-14T05:13:14;8.53;;;7.83;;
6023;SDS011;3040;42.654;23.296;2023-06-14T05:15:42;8.30;;;7.77;;
6023;SDS011;3040;42.654;23.296;2023-06-14T05:18:09;8.83;;;8.33;;
6023;SDS011;3040;42.654;23.296;2023-06-14T05:20:36;8.07;;;7.57;;
6023;SDS011;3040;42.654;23.296;2023-06-14T05:23:04;9.60;;;8.90;;
6023;SDS011;3040;42.654;23.296;2023-06-14T05:25:31;10.80;;;8.60;;
6023;SDS011;3040;42.654;23.296;2023-06-14T05:27:58;8.03;;;7.70;;
6023;SDS011;3040;42.654;23.296;2023-06-14T05:30:25;9.27;;;8.50;;
6023;SDS011;3040;42.654;23.296;2023-06-14T05:32:51;49.13;;;18.17;;
6023;SDS011;3040;42.654;23.296;2023-06-14T05:35:20;24.37;;;12.03;;
6023;SDS011;3040;42.654;23.296;2023-06-14T05:37:48;9.17;;;8.50;;
6023;SDS011;3040;42.654;23.296;2023-06-14T05:40:16;11.83;;;9.73;;
6023;SDS011;3040;42.654;23.296;2023-06-14T05:42:43;10.70;;;9.70;;
6023;SDS011;3040;42.654;23.296;2023-06-14T05:45:10;11.03;;;9.77;;
6023;SDS011;3040;42.654;23.296;2023-06-14T05:47:37;9.73;;;8.90;;
6023;SDS011;3040;42.654;23.296;2023-06-14T05:50:04;10.50;;;9.80;;
6023;SDS011;3040;42.654;23.296;2023-06-14T05:52:32;10.63;;;9.70;;
6023;SDS011;3040;42.654;23.296;2023-06-14T05:54:59;10.50;;;9.47;;
6023;SDS011;3040;42.654;23.296;2023-06-14T05:57:27;26.60;;;10.40;;
6023;SDS011;3040;42.654;23.296;2023-06-14T05:59:54;14.30;;;10.00;;
6023;SDS011;3040;42.654;23.296;2023-06-14T06:02:21;11.87;;;10.60;;
6023;SDS011;3040;42.654;23.296;2023-06-14T06:04:48;13.90;;;10.90;;
6023;SDS011;3040;42.654;23.296;2023-06-14T06:07:15;11.50;;;10.50;;
6023;SDS011;3040;42.654;23.296;2023-06-14T06:09:42;11.53;;;10.67;;
6023;SDS011;3040;42.654;23.296;2023-06-14T06:12:08;14.40;;;10.57;;
6023;SDS011;3040;42.654;23.296;2023-06-14T06:14:37;11.30;;;10.60;;
6023;SDS011;3040;42.654;23.296;2023-06-14T06:17:04;11.70;;;10.90;;
6023;SDS011;3040;42.654;23.296;2023-06-14T06:19:31;12.13;;;11.10;;
6023;SDS011;3040;42.654;23.296;2023-06-14T06:21:58;12.43;;;11.33;;
6023;SDS011;3040;42.654;23.296;2023-06-14T06:24:25;12.67;;;11.60;;
6023;SDS011;3040;42.654;23.296;2023-06-14T06:26:51;11.73;;;10.63;;
6023;SDS011;3040;42.654;23.296;2023-06-14T06:29:19;13.07;;;12.17;;
6023;SDS011;3040;42.654;23.296;2023-06-14T06:31:47;12.87;;;11.10;;
6023;SDS011;3040;42.654;23.296;2023-06-14T06:34:14;11.97;;;11.07;;
6023;SDS011;3040;42.654;23.296;2023-06-14T06:36:40;11.87;;;11.03;;
6023;SDS011;3040;42.654;23.296;2023-06-14T06:39:07;12.03;;;11.10;;
6023;SDS011;3040;42.654;23.296;2023-06-14T06:41:35;12.50;;;11.27;;
6023;SDS011;3040;42.654;23.296;2023-06-14T06:44:05;11.07;;;10.37;;
6023;SDS011;3040;42.654;23.296;2023-06-14T06:46:32;12.50;;;10.20;;
6023;SDS011;3040;42.654;23.296;2023-06-14T06:49:01;11.53;;;10.83;;
6023;SDS011;3040;42.654;23.296;2023-06-14T06:51:28;12.40;;;11.20;;
6023;SDS011;3040;42.654;23.296;2023-06-14T06:53:55;11.40;;;10.30;;
6023;SDS011;3040;42.654;23.296;2023-06-14T06:56:22;11.60;;;10.77;;
6023;SDS011;3040;42.654;23.296;2023-06-14T06:58:49;10.70;;;9.90;;
6023;SDS011;3040;42.654;23.296;2023-06-14T07:01:16;15.13;;;11.27;;
6023;SDS011;3040;42.654;23.296;2023-06-14T07:03:44;13.73;;;11.77;;
6023;SDS011;3040;42.654;23.296;2023-06-14T07:06:12;11.73;;;11.03;;
6023;SDS011;3040;42.654;23.296;2023-06-14T07:08:39;12.10;;;11.30;;
6023;SDS011;3040;42.654;23.296;2023-06-14T07:11:05;14.03;;;12.07;;
6023;SDS011;3040;42.654;23.296;2023-06-14T07:13:32;13.43;;;11.90;;
6023;SDS011;3040;42.654;23.296;2023-06-14T07:15:59;17.20;;;12.27;;
6023;SDS011;3040;42.654;23.296;2023-06-14T07:18:29;13.17;;;11.93;;
6023;SDS011;3040;42.654;23.296;2023-06-14T07:20:56;12.73;;;11.67;;
6023;SDS011;3040;42.654;23.296;2023-06-14T07:23:25;12.33;;;11.43;;
6023;SDS011;3040;42.654;23.296;2023-06-14T07:25:51;12.40;;;11.43;;
6023;SDS011;3040;42.654;23.296;2023-06-14T07:28:18;12.10;;;11.13;;
6023;SDS011;3040;42.654;23.296;2023-06-14T07:30:45;14.27;;;11.30;;
6023;SDS011;3040;42.654;23.296;2023-06-14T07:33:13;12.53;;;11.53;;
6023;SDS011;3040;42.654;23.296;2023-06-14T07:35:40;12.60;;;11.57;;
6023;SDS011;3040;42.654;23.296;2023-06-14T07:38:07;11.77;;;11.17;;
6023;SDS011;3040;42.654;23.296;2023-06-14T07:40:35;12.67;;;11.40;;
6023;SDS011;3040;42.654;23.296;2023-06-14T07:43:02;20.17;;;12.63;;
6023;SDS011;3040;42.654;23.296;2023-06-14T07:45:29;13.50;;;12.40;;
6023;SDS011;3040;42.654;23.296;2023-06-14T07:47:56;13.80;;;12.67;;
6023;SDS011;3040;42.654;23.296;2023-06-14T07:50:23;53.17;;;18.47;;
6023;SDS011;3040;42.654;23.296;2023-06-14T07:52:49;14.37;;;13.07;;
6023;SDS011;3040;42.654;23.296;2023-06-14T07:55:16;14.80;;;13.47;;
6023;SDS011;3040;42.654;23.296;2023-06-14T07:57:45;13.23;;;11.93;;
6023;SDS011;3040;42.654;23.296;2023-06-14T08:00:12;18.20;;;12.47;;
6023;SDS011;3040;42.654;23.296;2023-06-14T08:02:40;11.80;;;10.70;;
6023;SDS011;3040;42.654;23.296;2023-06-14T08:05:08;12.00;;;11.20;;
6023;SDS011;3040;42.654;23.296;2023-06-14T08:07:36;12.00;;;11.00;;
6023;SDS011;3040;42.654;23.296;2023-06-14T08:10:03;11.80;;;10.90;;
6023;SDS011;3040;42.654;23.296;2023-06-14T08:12:30;10.83;;;10.00;;
6023;SDS011;3040;42.654;23.296;2023-06-14T08:14:58;11.23;;;10.37;;
6023;SDS011;3040;42.654;23.296;2023-06-14T08:17:25;13.87;;;10.30;;
6023;SDS011;3040;42.654;23.296;2023-06-14T08:19:52;11.00;;;10.20;;
6023;SDS011;3040;42.654;23.296;2023-06-14T08:22:22;11.27;;;10.37;;
6023;SDS011;3040;42.654;23.296;2023-06-14T08:24:50;11.77;;;10.77;;
6023;SDS011;3040;42.654;23.296;2023-06-14T08:27:19;11.77;;;10.60;;
6023;SDS011;3040;42.654;23.296;2023-06-14T08:29:46;11.00;;;10.23;;
6023;SDS011;3040;42.654;23.296;2023-06-14T08:32:14;11.33;;;10.63;;
6023;SDS011;3040;42.654;23.296;2023-06-14T08:34:40;11.40;;;10.67;;
6023;SDS011;3040;42.654;23.296;2023-06-14T08:37:07;11.20;;;10.47;;
6023;SDS011;3040;42.654;23.296;2023-06-14T08:39:35;10.77;;;9.87;;
6023;SDS011;3040;42.654;23.296;2023-06-14T08:42:02;11.70;;;10.67;;
6023;SDS011;3040;42.654;23.296;2023-06-14T08:44:31;11.70;;;10.33;;
6023;SDS011;3040;42.654;23.296;2023-06-14T08:46:59;11.43;;;10.23;;
6023;SDS011;3040;42.654;23.296;2023-06-14T08:49:30;24.40;;;11.03;;
6023;SDS011;3040;42.654;23.296;2023-06-14T08:51:58;11.23;;;10.23;;
6023;SDS011;3040;42.654;23.296;2023-06-14T08:54:25;11.17;;;10.67;;
6023;SDS011;3040;42.654;23.296;2023-06-14T08:56:55;13.70;;;10.77;;
6023;SDS011;3040;42.654;23.296;2023-06-14T08:59:23;11.80;;;10.83;;
6023;SDS011;3040;42.654;23.296;2023-06-14T09:01:51;10.80;;;9.87;;
6023;SDS011;3040;42.654;23.296;2023-06-14T09:04:19;14.07;;;12.83;;
6023;SDS011;3040;42.654;23.296;2023-06-14T09:06:48;10.53;;;9.70;;
6023;SDS011;3040;42.654;23.296;2023-06-14T09:09:18;11.10;;;10.30;;
6023;SDS011;3040;42.654;23.296;2023-06-14T09:11:45;10.40;;;9.77;;
6023;SDS011;3040;42.654;23.296;2023-06-14T09:14:13;12.40;;;9.93;;
6023;SDS011;3040;42.654;23.296;2023-06-14T09:16:39;11.70;;;10.60;;
6023;SDS011;3040;42.654;23.296;2023-06-14T09:19:06;10.23;;;9.67;;
6023;SDS011;3040;42.654;23.296;2023-06-14T09:21:34;11.63;;;10.47;;
6023;SDS011;3040;42.654;23.296;2023-06-14T09:24:02;12.00;;;11.17;;
6023;SDS011;3040;42.654;23.296;2023-06-14T09:26:31;14.13;;;11.80;;
6023;SDS011;3040;42.654;23.296;2023-06-14T09:28:58;19.00;;;12.23;;
6023;SDS011;3040;42.654;23.296;2023-06-14T09:31:25;12.73;;;11.17;;
6023;SDS011;3040;42.654;23.296;2023-06-14T09:33:56;11.67;;;10.90;;
6023;SDS011;3040;42.654;23.296;2023-06-14T09:36:24;10.90;;;10.27;;
6023;SDS011;3040;42.654;23.296;2023-06-14T09:38:52;12.00;;;11.20;;
6023;SDS011;3040;42.654;23.296;2023-06-14T09:41:21;19.57;;;12.90;;
6023;SDS011;3040;42.654;23.296;2023-06-14T09:43:57;12.50;;;10.77;;
6023;SDS011;3040;42.654;23.296;2023-06-14T09:46:26;13.50;;;10.50;;
6023;SDS011;3040;42.654;23.296;2023-06-14T09:48:53;11.97;;;11.10;;
6023;SDS011;3040;42.654;23.296;2023-06-14T09:51:20;13.53;;;12.20;;
6023;SDS011;3040;42.654;23.296;2023-06-14T09:53:48;11.60;;;10.53;;
6023;SDS011;3040;42.654;23.296;2023-06-14T09:56:16;13.13;;;11.00;;
6023;SDS011;3040;42.654;23.296;2023-06-14T09:58:48;14.47;;;9.27;;
6023;SDS011;3040;42.654;23.296;2023-06-14T10:01:20;9.93;;;9.20;;
6023;SDS011;3040;42.654;23.296;2023-06-14T10:03:47;10.00;;;9.13;;
6023;SDS011;3040;42.654;23.296;2023-06-14T10:06:17;10.07;;;9.37;;
6023;SDS011;3040;42.654;23.296;2023-06-14T10:08:43;11.17;;;10.30;;
6023;SDS011;3040;42.654;23.296;2023-06-14T10:11:12;11.63;;;10.70;;
6023;SDS011;3040;42.654;23.296;2023-06-14T10:13:40;10.20;;;9.50;;
6023;SDS011;3040;42.654;23.296;2023-06-14T10:16:08;10.57;;;9.97;;
6023;SDS011;3040;42.654;23.296;2023-06-14T10:18:41;8.97;;;8.17;;
6023;SDS011;3040;42.654;23.296;2023-06-14T10:21:13;10.97;;;9.90;;
6023;SDS011;3040;42.654;23.296;2023-06-14T10:23:48;11.87;;;10.83;;
6023;SDS011;3040;42.654;23.296;2023-06-14T10:26:19;11.90;;;9.63;;
6023;SDS011;3040;42.654;23.296;2023-06-14T10:28:58;9.20;;;8.70;;
6023;SDS011;3040;42.654;23.296;2023-06-14T10:31:42;11.43;;;10.53;;
6023;SDS011;3040;42.654;23.296;2023-06-14T10:34:10;12.53;;;11.53;;
6023;SDS011;3040;42.654;23.296;2023-06-14T10:36:37;10.67;;;9.97;;
6023;SDS011;3040;42.654;23.296;2023-06-14T10:39:07;9.60;;;9.10;;
6023;SDS011;3040;42.654;23.296;2023-06-14T10:41:35;11.07;;;10.10;;
6023;SDS011;3040;42.654;23.296;2023-06-14T10:44:32;10.83;;;10.27;;
6023;SDS011;3040;42.654;23.296;2023-06-14T10:47:00;10.97;;;10.37;;
6023;SDS011;3040;42.654;23.296;2023-06-14T10:49:37;10.10;;;9.33;;
6023;SDS011;3040;42.654;23.296;2023-06-14T10:52:07;11.33;;;10.63;;
6023;SDS011;3040;42.654;23.296;2023-06-14T10:57:29;10.33;;;9.57;;
6023;SDS011;3040;42.654;23.296;2023-06-14T10:59:58;9.13;;;8.83;;
6023;SDS011;3040;42.654;23.296;2023-06-14T11:02:37;10.80;;;9.87;;
6023;SDS011;3040;42.654;23.296;2023-06-14T11:05:16;11.33;;;10.50;;
6023;SDS011;3040;42.654;23.296;2023-06-14T11:07:53;11.27;;;10.33;;
6023;SDS011;3040;42.654;23.296;2023-06-14T11:10:33;10.27;;;9.57;;
6023;SDS011;3040;42.654;23.296;2023-06-14T11:13:02;10.77;;;9.40;;
6023;SDS011;3040;42.654;23.296;2023-06-14T11:15:31;13.23;;;12.53;;
6023;SDS011;3040;42.654;23.296;2023-06-14T11:17:59;11.63;;;10.93;;
6023;SDS011;3040;42.654;23.296;2023-06-14T11:20:29;10.97;;;10.27;;
6023;SDS011;3040;42.654;23.296;2023-06-14T11:22:56;10.43;;;9.90;;
6023;SDS011;3040;42.654;23.296;2023-06-14T11:25:24;9.27;;;8.70;;
6023;SDS011;3040;42.654;23.296;2023-06-14T11:27:51;9.77;;;8.97;;
6023;SDS011;3040;42.654;23.296;2023-06-14T11:30:18;10.60;;;9.67;;
6023;SDS011;3040;42.654;23.296;2023-06-14T11:32:47;10.03;;;9.30;;
6023;SDS011;3040;42.654;23.296;2023-06-14T11:35:15;12.40;;;11.03;;
6023;SDS011;3040;42.654;23.296;2023-06-14T11:37:42;9.53;;;8.90;;
6023;SDS011;3040;42.654;23.296;2023-06-14T11:40:11;9.80;;;9.17;;
6023;SDS011;3040;42.654;23.296;2023-06-14T11:42:39;9.40;;;8.80;;
6023;SDS011;3040;42.654;23.296;2023-06-14T11:45:07;9.77;;;9.27;;
6023;SDS011;3040;42.654;23.296;2023-06-14T11:47:35;9.23;;;8.50;;
6023;SDS011;3040;42.654;23.296;2023-06-14T11:50:04;9.53;;;8.93;;
6023;SDS011;3040;42.654;23.296;2023-06-14T11:52:33;9.17;;;8.53;;
6023;SDS011;3040;42.654;23.296;2023-06-14T11:55:00;9.63;;;8.63;;
6023;SDS011;3040;42.654;23.296;2023-06-14T11:57:29;8.97;;;8.30;;
6023;SDS011;3040;42.654;23.296;2023-06-14T11:59:56;8.23;;;7.80;;
6023;SDS011;3040;42.654;23.296;2023-06-14T12:02:23;7.00;;;6.70;;
6023;SDS011;3040;42.654;23.296;2023-06-14T12:04:52;7.93;;;7.57;;
6023;SDS011;3040;42.654;23.296;2023-06-14T12:07:21;8.53;;;7.87;;
6023;SDS011;3040;42.654;23.296;2023-06-14T12:10:04;8.60;;;8.03;;
6023;SDS011;3040;42.654;23.296;2023-06-14T12:12:34;7.77;;;7.37;;
6023;SDS011;3040;42.654;23.296;2023-06-14T12:15:03;7.80;;;7.40;;
6023;SDS011;3040;42.654;23.296;2023-06-14T12:17:31;7.73;;;7.43;;
6023;SDS011;3040;42.654;23.296;2023-06-14T12:20:04;7.33;;;6.93;;
6023;SDS011;3040;42.654;23.296;2023-06-14T12:22:37;7.47;;;7.07;;
6023;SDS011;3040;42.654;23.296;2023-06-14T12:25:04;7.83;;;7.33;;
6023;SDS011;3040;42.654;23.296;2023-06-14T12:27:31;7.67;;;6.97;;
6023;SDS011;3040;42.654;23.296;2023-06-14T12:29:58;7.77;;;7.37;;
6023;SDS011;3040;42.654;23.296;2023-06-14T12:32:26;7.87;;;7.37;;
6023;SDS011;3040;42.654;23.296;2023-06-14T12:34:53;7.57;;;6.97;;
6023;SDS011;3040;42.654;23.296;2023-06-14T12:37:19;7.60;;;7.20;;
6023;SDS011;3040;42.654;23.296;2023-06-14T12:39:48;8.40;;;7.70;;
6023;SDS011;3040;42.654;23.296;2023-06-14T12:42:16;7.80;;;7.33;;
6023;SDS011;3040;42.654;23.296;2023-06-14T12:44:43;7.67;;;7.00;;
6023;SDS011;3040;42.654;23.296;2023-06-14T12:47:10;7.40;;;6.80;;
6023;SDS011;3040;42.654;23.296;2023-06-14T12:49:37;6.83;;;6.43;;
6023;SDS011;3040;42.654;23.296;2023-06-14T12:52:03;7.30;;;6.97;;
6023;SDS011;3040;42.654;23.296;2023-06-14T12:54:31;7.20;;;6.60;;
6023;SDS011;3040;42.654;23.296;2023-06-14T12:56:59;8.03;;;7.50;;
6023;SDS011;3040;42.654;23.296;2023-06-14T12:59:25;7.10;;;6.80;;
6023;SDS011;3040;42.654;23.296;2023-06-14T13:01:57;7.43;;;6.83;;
6023;SDS011;3040;42.654;23.296;2023-06-14T13:04:25;7.17;;;6.77;;
6023;SDS011;3040;42.654;23.296;2023-06-14T13:06:52;7.70;;;7.20;;
6023;SDS011;3040;42.654;23.296;2023-06-14T13:09:18;6.70;;;6.40;;
6023;SDS011;3040;42.654;23.296;2023-06-14T13:11:45;7.60;;;7.00;;
6023;SDS011;3040;42.654;23.296;2023-06-14T13:14:13;7.97;;;7.43;;
6023;SDS011;3040;42.654;23.296;2023-06-14T13:16:41;6.90;;;6.60;;
6023;SDS011;3040;42.654;23.296;2023-06-14T13:19:08;8.03;;;7.40;;
6023;SDS011;3040;42.654;23.296;2023-06-14T13:21:34;8.53;;;8.03;;
6023;SDS011;3040;42.654;23.296;2023-06-14T13:24:01;8.03;;;7.37;;
6023;SDS011;3040;42.654;23.296;2023-06-14T13:26:28;8.07;;;7.57;;
6023;SDS011;3040;42.654;23.296;2023-06-14T13:28:55;8.93;;;8.33;;
6023;SDS011;3040;42.654;23.296;2023-06-14T13:31:23;8.70;;;7.97;;
6023;SDS011;3040;42.654;23.296;2023-06-14T13:33:49;7.90;;;7.43;;
6023;SDS011;3040;42.654;23.296;2023-06-14T13:36:16;8.70;;;8.07;;
6023;SDS011;3040;42.654;23.296;2023-06-14T13:38:43;8.53;;;8.03;;
6023;SDS011;3040;42.654;23.296;2023-06-14T13:41:10;9.03;;;8.43;;
6023;SDS011;3040;42.654;23.296;2023-06-14T13:43:37;8.07;;;7.47;;
6023;SDS011;3040;42.654;23.296;2023-06-14T13:46:03;9.63;;;8.90;;
6023;SDS011;3040;42.654;23.296;2023-06-14T13:48:32;10.00;;;9.37;;
6023;SDS011;3040;42.654;23.296;2023-06-14T13:50:59;8.60;;;8.10;;
6023;SDS011;3040;42.654;23.296;2023-06-14T13:53:26;8.47;;;8.07;;
6023;SDS011;3040;42.654;23.296;2023-06-14T13:55:53;8.60;;;8.03;;
6023;SDS011;3040;42.654;23.296;2023-06-14T13:58:19;9.30;;;8.60;;
6023;SDS011;3040;42.654;23.296;2023-06-14T14:00:46;8.10;;;7.67;;
6023;SDS011;3040;42.654;23.296;2023-06-14T14:03:13;8.13;;;7.67;;
6023;SDS011;3040;42.654;23.296;2023-06-14T14:05:41;7.60;;;7.30;;
6023;SDS011;3040;42.654;23.296;2023-06-14T14:08:08;8.37;;;7.77;;
6023;SDS011;3040;42.654;23.296;2023-06-14T14:10:35;7.30;;;6.90;;
6023;SDS011;3040;42.654;23.296;2023-06-14T14:13:02;7.43;;;6.90;;
6023;SDS011;3040;42.654;23.296;2023-06-14T14:15:29;8.27;;;7.20;;
6023;SDS011;3040;42.654;23.296;2023-06-14T14:17:55;7.80;;;7.10;;
6023;SDS011;3040;42.654;23.296;2023-06-14T14:20:23;7.00;;;6.47;;
6023;SDS011;3040;42.654;23.296;2023-06-14T14:22:51;7.23;;;6.60;;
6023;SDS011;3040;42.654;23.296;2023-06-14T14:25:18;7.47;;;7.17;;
6023;SDS011;3040;42.654;23.296;2023-06-14T14:27:45;7.37;;;6.87;;
6023;SDS011;3040;42.654;23.296;2023-06-14T14:30:11;6.93;;;6.63;;
6023;SDS011;3040;42.654;23.296;2023-06-14T14:32:39;7.73;;;7.23;;
6023;SDS011;3040;42.654;23.296;2023-06-14T14:35:06;6.80;;;6.30;;
6023;SDS011;3040;42.654;23.296;2023-06-14T14:37:33;5.30;;;5.10;;
6023;SDS011;3040;42.654;23.296;2023-06-14T14:40:01;5.53;;;5.33;;
6023;SDS011;3040;42.654;23.296;2023-06-14T14:42:29;5.63;;;5.23;;
6023;SDS011;3040;42.654;23.296;2023-06-14T14:44:55;4.73;;;4.53;;
6023;SDS011;3040;42.654;23.296;2023-06-14T14:47:22;5.30;;;5.00;;
6023;SDS011;3040;42.654;23.296;2023-06-14T14:49:49;5.43;;;5.23;;
6023;SDS011;3040;42.654;23.296;2023-06-14T14:52:16;9.33;;;7.30;;
6023;SDS011;3040;42.654;23.296;2023-06-14T14:54:42;7.63;;;7.23;;
6023;SDS011;3040;42.654;23.296;2023-06-14T14:57:11;6.53;;;6.10;;
6023;SDS011;3040;42.654;23.296;2023-06-14T14:59:37;8.37;;;7.73;;
6023;SDS011;3040;42.654;23.296;2023-06-14T15:02:04;7.77;;;7.47;;